Time;durP1;ratioP1;P1;durP2;ratioP2;P2;SDS_P1;SDS_P2;PMS_P1;PMS_P2;Temp;Humidity;BMP_temperature;BMP_pressure;BME280_temperature;BME280_humidity;BME280_pressure;Samples;Min_cycle;Max_cycle;Signal;HPM_P1;HPM_P2
2022/10/11 00:00:47;;;;;;;;;;;;;;;19.55;51.28;95818.16;6119158;19;1588;-81
2022/10/11 00:02:50;;;;;;;;;;;;;;;19.54;51.42;95817.34;6129207;19;1649;-82
2022/10/11 00:04:53;;;;;;;;;;;;;;;19.55;51.54;95815.50;6126850;19;1647;-82
2022/10/11 00:06:57;;;;;;;;;;;;;;;19.54;51.72;95816.53;6127212;19;1362;-82
2022/10/11 00:09:03;;;;;;;;;;;;;;;19.54;51.61;95816.53;6126443;19;1914;-82
2022/10/11 00:11:07;;;;;;;;;;;;;;;19.53;51.56;95818.38;6102348;19;1491;-81
2022/10/11 00:13:11;;;;;;;;;;;;;;;19.58;51.15;95828.50;6122018;19;1444;-81
2022/10/11 00:15:15;;;;;;;;;;;;;;;19.65;51.15;95822.22;6121041;19;1527;-80
2022/10/11 00:17:18;;;;;;;;;;;;;;;19.67;51.00;95820.19;6123741;19;1410;-81
2022/10/11 00:19:22;;;;;;;;;;;;;;;19.70;51.25;95816.31;6121639;19;1641;-82
2022/10/11 00:21:26;;;;;;;;;;;;;;;19.65;51.48;95810.72;6111342;19;1449;-81
2022/10/11 00:23:29;;;;;;;;;;;;;;;19.63;51.33;95815.41;6113088;19;1437;-82
2022/10/11 00:25:35;;;;;;;;;;;;;;;19.62;51.79;95808.44;6120974;19;1505;-82
2022/10/11 00:27:38;;;;;;;;;;;;;;;19.59;51.40;95806.13;6123564;19;1421;-82
2022/10/11 00:29:42;;;;;;;;;;;;;;;19.57;51.55;95808.97;6119536;19;1848;-81
2022/10/11 00:31:45;;;;;;;;;;;;;;;19.57;51.91;95808.97;6123560;19;1496;-82
2022/10/11 00:33:49;;;;;;;;;;;;;;;19.58;51.84;95807.16;6102944;19;1533;-81
2022/10/11 00:35:52;;;;;;;;;;;;;;;19.56;51.90;95811.84;6123513;19;1326;-82
2022/10/11 00:37:57;;;;;;;;;;;;;;;19.56;51.44;95806.50;6124451;19;1515;-81
2022/10/11 00:40:01;;;;;;;;;;;;;;;19.54;51.64;95808.53;6122824;19;1424;-81
2022/10/11 00:42:07;;;;;;;;;;;;;;;19.56;51.94;95802.00;6121021;19;1593;-82
2022/10/11 00:44:15;;;;;;;;;;;;;;;19.57;51.90;95810.81;6115626;19;1495;-82
2022/10/11 00:46:30;;;;;;;;;;;;;;;19.57;51.57;95802.81;6113963;19;1429;-82
2022/10/11 00:48:37;;;;;;;;;;;;;;;19.57;51.64;95802.81;6118714;19;1850;-81
2022/10/11 00:50:40;;;;;;;;;;;;;;;19.57;51.46;95795.66;6120201;19;1508;-83
2022/10/11 00:52:44;;;;;;;;;;;;;;;19.58;51.64;95793.84;6121206;19;1508;-82
2022/10/11 00:54:49;;;;;;;;;;;;;;;19.57;51.74;95792.16;6122114;19;1346;-81
2022/10/11 00:56:56;;;;;;;;;;;;;;;19.57;51.41;95792.16;6104638;19;1452;-81
2022/10/11 00:59:04;;;;;;;;;;;;;;;19.57;51.41;95792.16;6121193;19;1343;-82
2022/10/11 01:01:07;;;;;;;;;;;;;;;19.57;51.29;95794.81;6119295;19;1490;-82
2022/10/11 01:03:11;;;;;;;;;;;;;;;19.57;51.44;95792.16;6119752;19;1539;-82
2022/10/11 01:05:16;;;;;;;;;;;;;;;19.57;51.23;95794.81;6121266;19;1508;-82
2022/10/11 01:07:20;;;;;;;;;;;;;;;19.56;51.38;95793.19;6108016;19;1507;-82
2022/10/11 01:09:24;;;;;;;;;;;;;;;19.56;51.30;95791.34;6118949;19;1845;-81
2022/10/11 01:11:29;;;;;;;;;;;;;;;19.57;51.36;95792.16;6122350;19;1513;-83
2022/10/11 01:13:40;;;;;;;;;;;;;;;19.56;51.32;95787.84;6121936;19;1436;-82
2022/10/11 01:15:51;;;;;;;;;;;;;;;19.56;51.35;95793.19;6119564;19;1543;-82
2022/10/11 01:17:58;;;;;;;;;;;;;;;19.55;51.43;95786.19;6119971;19;1504;-84
2022/10/11 01:20:17;;;;;;;;;;;;;;;19.54;51.49;95788.03;6107198;19;1014;-84
2022/10/11 01:22:29;;;;;;;;;;;;;;;19.54;51.66;95792.53;6118338;19;1449;-83
2022/10/11 01:24:45;;;;;;;;;;;;;;;19.54;51.51;95787.22;6120909;19;1504;-84
2022/10/11 01:26:58;;;;;;;;;;;;;;;19.54;51.32;95784.53;6121864;19;1503;-84
2022/10/11 01:29:08;;;;;;;;;;;;;;;19.53;51.54;95786.38;6120438;19;1853;-83
2022/10/11 01:31:17;;;;;;;;;;;;;;;19.52;51.31;95778.53;6102409;19;1441;-84
2022/10/11 01:33:25;;;;;;;;;;;;;;;19.53;51.71;95782.91;6120330;19;1437;-84
2022/10/11 01:35:32;;;;;;;;;;;;;;;19.53;51.39;95774.91;6119325;19;1523;-84
2022/10/11 01:37:37;;;;;;;;;;;;;;;19.52;51.38;95774.06;6120701;19;1485;-84
2022/10/11 01:39:44;;;;;;;;;;;;;;;19.52;51.58;95778.53;6120275;19;1509;-84
2022/10/11 01:41:50;;;;;;;;;;;;;;;19.52;51.39;95773.19;6102294;19;1524;-84
2022/10/11 01:43:56;;;;;;;;;;;;;;;19.52;51.17;95771.38;6120176;19;1523;-83
2022/10/11 01:46:02;;;;;;;;;;;;;;;19.51;51.15;95772.38;6120857;19;1523;-84
2022/10/11 01:48:10;;;;;;;;;;;;;;;19.52;51.19;95773.19;6120663;19;1507;-84
2022/10/11 01:50:28;;;;;;;;;;;;;;;19.50;51.36;95770.72;6119008;19;1874;-84
2022/10/11 01:52:33;;;;;;;;;;;;;;;19.50;51.45;95773.41;6110888;19;1494;-84
2022/10/11 01:54:53;;;;;;;;;;;;;;;19.51;51.39;95784.88;6109737;19;1417;-84
2022/10/11 01:57:20;;;;;;;;;;;;;;;19.51;51.10;95776.88;6117889;19;1552;-83
2022/10/11 01:59:33;;;;;;;;;;;;;;;19.50;51.33;95781.41;6116649;19;1396;-84
2022/10/11 02:01:44;;;;;;;;;;;;;;;19.50;51.40;95777.91;6120740;19;1402;-84
2022/10/11 02:03:53;;;;;;;;;;;;;;;19.51;51.47;95776.88;6111489;19;1583;-84
2022/10/11 02:05:59;;;;;;;;;;;;;;;19.51;51.36;95774.22;6111932;19;1515;-84
2022/10/11 02:08:06;;;;;;;;;;;;;;;19.50;51.27;95778.72;6121885;19;1414;-84
2022/10/11 02:10:13;;;;;;;;;;;;;;;19.51;51.44;95779.56;6118649;19;1843;-84
2022/10/11 02:12:20;;;;;;;;;;;;;;;19.50;51.40;95784.06;6119804;19;1508;-84
2022/10/11 02:14:24;;;;;;;;;;;;;;;19.50;51.25;95780.56;6120829;19;1448;-84
2022/10/11 02:16:30;;;;;;;;;;;;;;;19.49;51.19;95782.41;6100065;19;1441;-84
2022/10/11 02:18:36;;;;;;;;;;;;;;;19.49;51.64;95785.09;6118422;19;1413;-84
2022/10/11 02:20:43;;;;;;;;;;;;;;;19.49;51.23;95781.56;6117740;19;1487;-84
2022/10/11 02:22:48;;;;;;;;;;;;;;;19.50;51.45;95783.25;6118612;19;1536;-84
2022/10/11 02:24:54;;;;;;;;;;;;;;;19.49;51.63;95773.56;6117444;19;1478;-84
2022/10/11 02:26:58;;;;;;;;;;;;;;;19.49;51.60;95770.91;6111005;19;1531;-84
2022/10/11 02:29:04;;;;;;;;;;;;;;;19.49;51.38;95768.25;6106842;19;1865;-83
2022/10/11 02:31:08;;;;;;;;;;;;;;;19.49;51.37;95768.25;6118568;19;1521;-83
2022/10/11 02:33:14;;;;;;;;;;;;;;;19.48;51.51;95766.59;6117133;19;1519;-83
2022/10/11 02:35:18;;;;;;;;;;;;;;;19.49;51.10;95779.75;6116361;19;1515;-84
2022/10/11 02:37:27;;;;;;;;;;;;;;;19.49;51.48;95770.91;6121040;19;1485;-83
2022/10/11 02:39:34;;;;;;;;;;;;;;;19.51;51.47;95767.03;6100563;19;1306;-83
2022/10/11 02:41:41;;;;;;;;;;;;;;;19.52;51.42;95766.06;6118590;19;1406;-83
2022/10/11 02:43:47;;;;;;;;;;;;;;;19.53;51.18;95764.25;6120742;19;1527;-83
2022/10/11 02:45:52;;;;;;;;;;;;;;;19.58;51.61;95767.19;6118987;19;1516;-83
2022/10/11 02:47:56;;;;;;;;;;;;;;;19.69;51.31;95766.69;6118663;19;1433;-83
2022/10/11 02:50:00;;;;;;;;;;;;;;;19.71;50.84;95764.66;6107714;19;1820;-81
2022/10/11 02:52:05;;;;;;;;;;;;;;;19.69;50.67;95763.19;6109316;19;1493;-83
2022/10/11 02:54:11;;;;;;;;;;;;;;;19.65;50.79;95768.06;6120485;19;1486;-83
2022/10/11 02:56:14;;;;;;;;;;;;;;;19.69;50.88;95757.84;6117744;19;1432;-83
2022/10/11 02:58:17;;;;;;;;;;;;;;;19.65;50.86;95757.41;6120262;19;1456;-86
2022/10/11 03:00:21;;;;;;;;;;;;;;;19.63;51.26;95754.94;6116845;19;1448;-86
2022/10/11 03:02:24;;;;;;;;;;;;;;;19.65;51.03;95752.88;6100553;19;1450;-82
2022/10/11 03:04:28;;;;;;;;;;;;;;;19.66;51.23;95753.72;6115663;19;1621;-82
2022/10/11 03:06:31;;;;;;;;;;;;;;;19.63;50.92;95749.59;6116617;19;1440;-83
2022/10/11 03:08:34;;;;;;;;;;;;;;;19.64;51.03;95753.09;6118885;19;1508;-85
2022/10/11 03:10:41;;;;;;;;;;;;;;;19.62;51.15;95749.78;6116761;19;1849;-82
2022/10/11 03:12:44;;;;;;;;;;;;;;;19.24;50.10;95754.41;6102035;19;1512;-85
2022/10/11 03:14:48;;;;;;;;;;;;;;;18.89;49.66;95751.47;6118154;19;1486;-86
2022/10/11 03:16:51;;;;;;;;;;;;;;;18.76;49.14;95744.13;6119408;19;1520;-87
2022/10/11 03:18:54;;;;;;;;;;;;;;;18.67;48.99;95748.69;6117307;19;1060;-85
2022/10/11 03:20:58;;;;;;;;;;;;;;;18.58;49.15;95744.44;6120405;19;1519;-85
2022/10/11 03:23:01;;;;;;;;;;;;;;;18.61;48.63;95738.75;6117406;19;1524;-86
2022/10/11 03:25:05;;;;;;;;;;;;;;;18.60;48.43;95747.72;6100605;19;1476;-84
2022/10/11 03:27:11;;;;;;;;;;;;;;;18.53;48.31;95744.97;6118329;19;1351;-86
2022/10/11 03:29:14;;;;;;;;;;;;;;;18.49;48.29;95741.00;6118909;19;1842;-84
2022/10/11 03:31:17;;;;;;;;;;;;;;;18.47;48.07;95747.53;6117790;19;1520;-84
2022/10/11 03:33:21;;;;;;;;;;;;;;;18.68;48.52;95746.84;6115552;19;1476;-81
2022/10/11 03:35:24;;;;;;;;;;;;;;;18.84;48.50;95748.53;6108282;19;1448;-79
2022/10/11 03:37:28;;;;;;;;;;;;;;;18.92;48.79;95732.44;6105315;19;1450;-79
2022/10/11 03:39:31;;;;;;;;;;;;;;;18.97;48.89;95738.88;6105483;19;1508;-79
2022/10/11 03:41:35;;;;;;;;;;;;;;;19.03;48.89;95741.81;6114208;19;1600;-79
2022/10/11 03:43:41;;;;;;;;;;;;;;;19.11;49.18;95741.72;6118185;19;1364;-80
2022/10/11 03:45:41;;;;;;;;;;;;;;;19.15;49.07;95745.66;6122733;19;1476;-78
2022/10/11 03:47:45;;;;;;;;;;;;;;;19.20;48.86;95736.09;6104153;19;1533;-78
2022/10/11 03:49:48;;;;;;;;;;;;;;;19.24;49.01;95739.25;6123857;19;1858;-78
2022/10/11 03:51:51;;;;;;;;;;;;;;;19.24;49.06;95733.94;6123412;19;1600;-78
2022/10/11 03:53:55;;;;;;;;;;;;;;;19.26;48.99;95739.06;6124637;19;1417;-78
2022/10/11 03:55:58;;;;;;;;;;;;;;;19.24;49.22;95733.94;6123436;19;1448;-78
2022/10/11 03:58:03;;;;;;;;;;;;;;;19.23;49.20;95734.91;6115447;19;1257;-83
2022/10/11 04:00:10;;;;;;;;;;;;;;;19.24;49.42;95730.44;6112446;19;1422;-78
2022/10/11 04:02:13;;;;;;;;;;;;;;;19.25;49.32;95732.91;6125865;19;1323;-79
2022/10/11 04:04:17;;;;;;;;;;;;;;;19.26;49.33;95726.56;6118732;19;1501;-78
2022/10/11 04:06:20;;;;;;;;;;;;;;;19.27;49.00;95717.56;6119001;19;1395;-80
2022/10/11 04:08:24;;;;;;;;;;;;;;;19.38;47.42;95730.41;6121281;19;1474;-79
2022/10/11 04:10:27;;;;;;;;;;;;;;;19.30;47.24;95727.84;6102132;19;1841;-80
2022/10/11 04:12:30;;;;;;;;;;;;;;;19.26;47.21;95721.22;6120267;19;1054;-78
2022/10/11 04:14:34;;;;;;;;;;;;;;;19.20;46.78;95735.28;6118756;19;1478;-78
2022/10/11 04:16:40;;;;;;;;;;;;;;;19.19;47.93;95734.47;6120899;19;1473;-78
2022/10/11 04:18:43;;;;;;;;;;;;;;;19.15;48.30;95743.00;6121871;19;1463;-78
2022/10/11 04:20:47;;;;;;;;;;;;;;;19.09;47.15;95736.56;6120608;19;1542;-78
2022/10/11 04:22:50;;;;;;;;;;;;;;;18.78;47.95;95739.44;6102672;19;1007;-82
2022/10/11 04:24:54;;;;;;;;;;;;;;;18.57;48.19;95736.63;6116416;19;1464;-82
2022/10/11 04:26:57;;;;;;;;;;;;;;;18.47;47.85;95737.72;6118888;19;1457;-81
2022/10/11 04:29:00;;;;;;;;;;;;;;;18.44;48.38;95734.56;6120530;19;1092;-82
2022/10/11 04:31:06;;;;;;;;;;;;;;;18.40;48.25;95728.78;6119941;19;1841;-81
2022/10/11 04:33:12;;;;;;;;;;;;;;;18.36;48.43;95730.16;6099781;19;1394;-81
2022/10/11 04:35:16;;;;;;;;;;;;;;;18.36;48.39;95735.50;6115217;19;1362;-81
2022/10/11 04:37:19;;;;;;;;;;;;;;;18.35;48.31;95736.47;6117659;19;1055;-81
2022/10/11 04:39:22;;;;;;;;;;;;;;;18.27;47.99;95737.41;6117023;19;1041;-81
2022/10/11 04:41:26;;;;;;;;;;;;;;;18.33;48.12;95731.34;6114643;19;1367;-81
2022/10/11 04:43:29;;;;;;;;;;;;;;;18.33;47.89;95741.16;6116093;19;1012;-81
2022/10/11 04:45:32;;;;;;;;;;;;;;;18.28;48.21;95728.41;6098703;19;1058;-81
2022/10/11 04:47:36;;;;;;;;;;;;;;;18.25;48.39;95730.59;6116762;19;982;-81
2022/10/11 04:49:42;;;;;;;;;;;;;;;18.31;47.87;95730.69;6115749;19;1866;-81
2022/10/11 04:51:45;;;;;;;;;;;;;;;18.27;48.17;95737.41;6120554;19;1131;-81
2022/10/11 04:53:49;;;;;;;;;;;;;;;18.24;48.32;95726.25;6117391;19;1426;-81
2022/10/11 04:56:02;;;;;;;;;;;;;;;18.23;48.38;95735.25;6097896;19;1440;-81
2022/10/11 04:58:05;;;;;;;;;;;;;;;18.21;48.26;95737.25;6120355;19;1044;-80
2022/10/11 05:00:09;;;;;;;;;;;;;;;18.24;48.56;95739.56;6121079;19;962;-79
2022/10/11 05:02:12;;;;;;;;;;;;;;;18.47;48.32;95735.06;6118066;19;1478;-78
2022/10/11 05:04:16;;;;;;;;;;;;;;;18.56;48.25;95741.13;6116538;19;1637;-77
2022/10/11 05:06:22;;;;;;;;;;;;;;;18.61;48.42;95740.56;6118969;19;1449;-79
2022/10/11 05:08:26;;;;;;;;;;;;;;;18.67;48.25;95745.22;6104658;19;1494;-78
2022/10/11 05:10:29;;;;;;;;;;;;;;;18.69;48.29;95743.19;6118250;19;1853;-78
2022/10/11 05:12:32;;;;;;;;;;;;;;;18.70;48.52;95737.69;6119165;19;1148;-78
2022/10/11 05:14:36;;;;;;;;;;;;;;;18.73;48.23;95733.84;6119216;19;1379;-79
2022/10/11 05:16:39;;;;;;;;;;;;;;;18.79;48.09;95729.63;6117615;19;1380;-79
2022/10/11 05:18:43;;;;;;;;;;;;;;;18.75;48.41;95739.78;6101748;19;1474;-78
2022/10/11 05:20:46;;;;;;;;;;;;;;;18.70;48.80;95737.69;6119155;19;1080;-77
2022/10/11 05:22:52;;;;;;;;;;;;;;;18.66;48.93;95741.69;6117194;19;1504;-77
2022/10/11 05:24:55;;;;;;;;;;;;;;;18.62;48.58;95745.72;6117188;19;1581;-78
2022/10/11 05:26:59;;;;;;;;;;;;;;;18.66;48.45;95748.88;6118988;19;1124;-76
2022/10/11 05:29:02;;;;;;;;;;;;;;;18.67;48.72;95745.22;6118417;19;1501;-77
2022/10/11 05:31:06;;;;;;;;;;;;;;;18.65;48.59;95752.50;6101921;19;1838;-78
2022/10/11 05:33:09;;;;;;;;;;;;;;;18.65;48.47;95752.50;6118566;19;1001;-76
2022/10/11 05:35:13;;;;;;;;;;;;;;;18.68;48.63;95754.84;6119128;19;1033;-77
2022/10/11 05:37:16;;;;;;;;;;;;;;;18.68;48.29;95749.53;6119014;19;1014;-77
2022/10/11 05:39:22;;;;;;;;;;;;;;;18.64;48.24;95754.34;6118099;19;1026;-77
2022/10/11 05:41:25;;;;;;;;;;;;;;;18.64;48.61;95758.88;6099936;19;1108;-79
2022/10/11 05:43:29;;;;;;;;;;;;;;;18.65;48.47;95763.16;6118759;19;1057;-77
2022/10/11 05:45:33;;;;;;;;;;;;;;;18.60;48.82;95758.38;6119164;19;1095;-77
2022/10/11 05:47:37;;;;;;;;;;;;;;;18.59;48.88;95762.06;6118169;19;1034;-76
2022/10/11 05:49:40;;;;;;;;;;;;;;;18.64;48.80;95753.53;6118470;19;1045;-78
2022/10/11 05:51:43;;;;;;;;;;;;;;;18.72;48.49;95761.44;6111062;19;1843;-77
2022/10/11 05:53:47;;;;;;;;;;;;;;;18.76;48.54;95765.41;6107865;19;1096;-78
2022/10/11 05:55:53;;;;;;;;;;;;;;;18.77;48.49;95767.88;6116340;19;1394;-79
2022/10/11 05:57:57;;;;;;;;;;;;;;;18.83;48.37;95768.16;6119326;19;986;-79
2022/10/11 06:00:00;;;;;;;;;;;;;;;18.80;48.61;95761.38;6117835;19;1019;-78
2022/10/11 06:02:04;;;;;;;;;;;;;;;18.83;48.57;95760.19;6116304;19;1478;-79
2022/10/11 06:04:08;;;;;;;;;;;;;;;18.84;48.70;95760.00;6099948;19;1271;-78
2022/10/11 06:06:11;;;;;;;;;;;;;;;18.86;48.53;95762.47;6118921;19;1509;-78
2022/10/11 06:08:15;;;;;;;;;;;;;;;18.85;48.54;95764.31;6116219;19;1021;-80
2022/10/11 06:10:19;;;;;;;;;;;;;;;18.87;48.79;95753.50;6116986;19;1840;-79
2022/10/11 06:12:25;;;;;;;;;;;;;;;18.87;49.08;95759.66;6118865;19;1213;-78
2022/10/11 06:14:28;;;;;;;;;;;;;;;18.89;48.90;95751.47;6110917;19;1092;-79
2022/10/11 06:16:32;;;;;;;;;;;;;;;18.90;48.83;95748.63;6107330;19;1537;-76
2022/10/11 06:18:35;;;;;;;;;;;;;;;18.92;48.68;95737.78;6115655;19;1382;-76
2022/10/11 06:20:39;;;;;;;;;;;;;;;18.85;48.76;95744.88;6117729;19;1076;-76
2022/10/11 06:22:42;;;;;;;;;;;;;;;18.80;48.86;95732.09;6118091;19;1161;-76
2022/10/11 06:24:46;;;;;;;;;;;;;;;18.83;48.60;95726.38;6116658;19;1116;-80
2022/10/11 06:26:50;;;;;;;;;;;;;;;18.89;48.39;95730.97;6099767;19;1170;-77
2022/10/11 06:28:57;;;;;;;;;;;;;;;18.90;48.69;95748.63;6117401;19;1034;-77
2022/10/11 06:31:00;;;;;;;;;;;;;;;18.92;49.21;95757.28;6117890;19;1861;-77
2022/10/11 06:33:04;;;;;;;;;;;;;;;18.92;49.07;95743.94;6117152;19;1077;-77
2022/10/11 06:35:08;;;;;;;;;;;;;;;18.96;49.13;95747.88;6117350;19;1005;-80
2022/10/11 06:37:11;;;;;;;;;;;;;;;19.10;48.48;95748.09;6109399;19;1069;-80
2022/10/11 06:39:14;;;;;;;;;;;;;;;19.15;48.39;95745.66;6107298;19;1558;-80
2022/10/11 06:41:19;;;;;;;;;;;;;;;19.19;48.76;95746.97;6117766;19;1057;-81
2022/10/11 06:43:22;;;;;;;;;;;;;;;19.22;48.63;95747.41;6117052;19;1390;-81
2022/10/11 06:45:28;;;;;;;;;;;;;;;19.22;48.41;95749.25;6118453;19;1442;-81
2022/10/11 06:47:32;;;;;;;;;;;;;;;19.24;48.27;95765.06;6117032;19;1065;-81
2022/10/11 06:49:35;;;;;;;;;;;;;;;19.22;48.72;95760.75;6101450;19;1254;-80
2022/10/11 06:51:39;;;;;;;;;;;;;;;19.22;48.69;95758.06;6116365;19;1858;-80
2022/10/11 06:53:42;;;;;;;;;;;;;;;19.24;48.84;95767.75;6115686;19;1387;-80
2022/10/11 06:55:46;;;;;;;;;;;;;;;19.25;48.85;95774.72;6116715;19;1104;-80
2022/10/11 06:57:49;;;;;;;;;;;;;;;19.23;48.89;95772.22;6115358;19;1413;-80
2022/10/11 06:59:52;;;;;;;;;;;;;;;19.22;48.77;95774.06;6109027;19;1533;-79
2022/10/11 07:01:58;;;;;;;;;;;;;;;19.25;48.66;95772.03;6107546;19;1097;-78
2022/10/11 07:04:02;;;;;;;;;;;;;;;19.24;48.73;95763.22;6116703;19;1323;-79
2022/10/11 07:06:06;;;;;;;;;;;;;;;19.24;49.32;95771.22;6116948;19;1060;-79
2022/10/11 07:08:10;;;;;;;;;;;;;;;19.25;49.25;95764.88;6117440;19;1006;-78
2022/10/11 07:10:13;;;;;;;;;;;;;;;19.25;49.02;95761.38;6117264;19;1065;-81
2022/10/11 07:12:17;;;;;;;;;;;;;;;19.25;49.22;95764.88;6098461;19;1857;-79
2022/10/11 07:14:20;;;;;;;;;;;;;;;19.25;49.36;95764.06;6117484;19;1029;-78
2022/10/11 07:16:24;;;;;;;;;;;;;;;19.25;49.32;95756.88;6113511;19;1433;-79
2022/10/11 07:18:30;;;;;;;;;;;;;;;19.25;49.40;95759.53;6115515;19;1536;-80
2022/10/11 07:20:34;;;;;;;;;;;;;;;19.26;49.48;95758.53;6124197;19;997;-80
2022/10/11 07:22:37;;;;;;;;;;;;;;;19.25;49.02;95762.22;6115274;19;1053;-82
2022/10/11 07:24:40;;;;;;;;;;;;;;;19.27;49.51;95764.69;6113017;19;1122;-78
2022/10/11 07:26:44;;;;;;;;;;;;;;;19.27;49.12;95759.38;6121472;19;1418;-79
2022/10/11 07:28:48;;;;;;;;;;;;;;;19.28;49.57;95761.00;6123746;19;1559;-79
2022/10/11 07:30:51;;;;;;;;;;;;;;;19.29;49.52;95763.50;6120745;19;1843;-79
2022/10/11 07:32:55;;;;;;;;;;;;;;;19.28;49.40;95771.69;6123149;19;1025;-78
2022/10/11 07:35:01;;;;;;;;;;;;;;;19.32;49.54;95768.47;6104534;19;944;-81
2022/10/11 07:37:04;;;;;;;;;;;;;;;19.33;49.42;95764.78;6120907;19;1499;-78
2022/10/11 07:39:08;;;;;;;;;;;;;;;19.38;49.42;95765.06;6119794;19;1389;-78
2022/10/11 07:41:12;;;;;;;;;;;;;;;19.38;49.16;95765.06;6122783;19;937;-79
2022/10/11 07:43:15;;;;;;;;;;;;;;;19.39;49.44;95764.03;6122297;19;1150;-81
2022/10/11 07:45:19;;;;;;;;;;;;;;;19.38;49.64;95762.38;6113256;19;1086;-82
2022/10/11 07:47:22;;;;;;;;;;;;;;;19.40;49.28;95763.00;6113805;19;1049;-79
2022/10/11 07:49:25;;;;;;;;;;;;;;;19.39;49.25;95764.03;6122952;19;1184;-79
2022/10/11 07:51:31;;;;;;;;;;;;;;;19.50;49.31;95764.59;6122613;19;1841;-80
2022/10/11 07:53:39;;;;;;;;;;;;;;;19.52;49.03;95768.72;6118740;19;1407;-78
2022/10/11 07:55:42;;;;;;;;;;;;;;;19.54;49.29;95763.22;6121902;19;1021;-78
2022/10/11 07:57:46;;;;;;;;;;;;;;;19.53;49.26;95759.72;6105114;19;1052;-77
2022/10/11 07:59:49;;;;;;;;;;;;;;;19.53;48.84;95764.25;6120217;19;1440;-79
2022/10/11 08:01:52;;;;;;;;;;;;;;;19.52;49.02;95763.38;6122894;19;1084;-79
2022/10/11 08:03:56;;;;;;;;;;;;;;;19.50;49.15;95754.75;6119010;19;1388;-76
2022/10/11 08:06:01;;;;;;;;;;;;;;;19.50;49.09;95759.25;6122744;19;1017;-78
2022/10/11 08:08:07;;;;;;;;;;;;;;;19.50;49.43;95764.59;6112666;19;1053;-77
2022/10/11 08:10:11;;;;;;;;;;;;;;;19.51;49.02;95760.91;6113442;19;1202;-78
2022/10/11 08:12:15;;;;;;;;;;;;;;;19.53;49.40;95764.25;6120078;19;1861;-79
2022/10/11 08:14:18;;;;;;;;;;;;;;;19.52;49.20;95765.19;6118679;19;1406;-80
2022/10/11 08:16:22;;;;;;;;;;;;;;;19.53;49.38;95769.56;6118996;19;1384;-76
2022/10/11 08:18:25;;;;;;;;;;;;;;;19.53;49.27;95774.91;6122118;19;1124;-77
2022/10/11 08:20:30;;;;;;;;;;;;;;;19.53;49.16;95780.22;6104538;19;1550;-77
2022/10/11 08:22:33;;;;;;;;;;;;;;;19.55;49.44;95779.03;6120946;19;1116;-81
2022/10/11 08:24:39;;;;;;;;;;;;;;;19.56;49.13;95780.69;6122536;19;1041;-78
2022/10/11 08:26:42;;;;;;;;;;;;;;;22.32;43.34;95775.03;6119676;19;1419;-74
2022/10/11 08:28:46;;;;;;;;;;;;;;;20.83;45.91;95781.94;6124927;19;1116;-81
2022/10/11 08:30:50;;;;;;;;;;;;;;;20.19;47.16;95780.97;6112156;19;1092;-85
2022/10/11 08:32:53;;;;;;;;;;;;;;;19.83;47.15;95783.66;6115712;19;1853;-84
2022/10/11 08:34:57;;;;;;;;;;;;;;;19.69;47.14;95790.69;6123069;19;1399;-87
2022/10/11 08:37:00;;;;;;;;;;;;;;;19.56;47.32;95785.19;6123609;19;1064;-86
2022/10/11 08:39:03;;;;;;;;;;;;;;;19.41;47.44;95783.34;6124018;19;1112;-87
2022/10/11 08:41:22;;;;;;;;;;;;;;;19.41;47.44;95779.84;6121908;19;1379;-87
2022/10/11 08:43:32;;;;;;;;;;;;;;;19.47;47.40;95770.28;6105626;19;1195;-87
2022/10/11 08:45:41;;;;;;;;;;;;;;;19.51;47.12;95777.72;6122565;19;816;-87
2022/10/11 08:47:45;;;;;;;;;;;;;;;19.45;46.92;95773.94;6121000;19;1505;-87
2022/10/11 08:49:49;;;;;;;;;;;;;;;19.51;47.04;95772.38;6123998;19;958;-87
2022/10/11 08:51:58;;;;;;;;;;;;;;;19.64;46.90;95769.91;6120826;19;1825;-83
2022/10/11 08:54:04;;;;;;;;;;;;;;;19.85;46.81;95770.97;6107696;19;1508;-84
2022/10/11 08:56:08;;;;;;;;;;;;;;;19.96;46.64;95773.13;6122274;19;1077;-85
2022/10/11 08:58:16;;;;;;;;;;;;;;;20.02;46.47;95777.72;6119669;19;1626;-85
2022/10/11 09:00:22;;;;;;;;;;;;;;;20.10;46.49;95768.75;6121553;19;1537;-87
2022/10/11 09:02:34;;;;;;;;;;;;;;;20.14;46.14;95775.34;6122172;19;1531;-85
2022/10/11 09:04:37;;;;;;;;;;;;;;;20.15;46.16;95768.19;6119837;19;1380;-84
2022/10/11 09:06:46;;;;;;;;;;;;;;;20.18;46.01;95779.31;6105581;19;1377;-84
2022/10/11 09:08:56;;;;;;;;;;;;;;;20.19;46.34;95769.47;6121259;19;1147;-84
2022/10/11 09:11:01;;;;;;;;;;;;;;;20.18;46.46;95765.97;6122617;19;1080;-86
2022/10/11 09:13:11;;;;;;;;;;;;;;;20.21;46.33;95757.59;6121540;19;1911;-86
2022/10/11 09:15:25;;;;;;;;;;;;;;;20.22;46.55;95751.22;6121665;19;1106;-86
2022/10/11 09:17:39;;;;;;;;;;;;;;;20.23;46.48;95760.91;6104107;19;1096;-84
2022/10/11 09:19:57;;;;;;;;;;;;;;;20.25;46.27;95761.50;6120685;19;1386;-87
2022/10/11 09:22:05;;;;;;;;;;;;;;;20.27;46.30;95756.81;6120448;19;1537;-86
2022/10/11 09:24:21;;;;;;;;;;;;;;;20.28;46.28;95758.44;6119602;19;1489;-86
2022/10/11 09:26:27;;;;;;;;;;;;;;;20.32;46.54;95756.25;6122733;19;1167;-85
2022/10/11 09:28:37;;;;;;;;;;;;;;;20.33;46.37;95758.72;6104358;19;1212;-88
2022/10/11 09:30:48;;;;;;;;;;;;;;;20.34;46.18;95763.06;6123500;19;1062;-88
2022/10/11 09:32:56;;;;;;;;;;;;;;;20.33;46.45;95761.38;6122225;19;1858;-93
2022/10/11 09:35:02;;;;;;;;;;;;;;;20.36;46.57;95762.84;6122456;19;1188;-87
2022/10/11 09:37:11;;;;;;;;;;;;;;;20.36;46.51;95759.34;6117963;19;1402;-87
2022/10/11 09:39:23;;;;;;;;;;;;;;;20.38;46.51;95762.69;6112618;19;1406;-86
2022/10/11 09:41:31;;;;;;;;;;;;;;;20.38;46.30;95752.03;6114942;19;1492;-86
2022/10/11 09:43:34;;;;;;;;;;;;;;;20.40;46.56;95760.63;6120521;19;1074;-86
2022/10/11 09:45:41;;;;;;;;;;;;;;;20.45;46.70;95760.91;6118775;19;1523;-84
2022/10/11 09:47:48;;;;;;;;;;;;;;;20.43;46.76;95752.25;6119567;19;1112;-84
2022/10/11 09:49:58;;;;;;;;;;;;;;;20.45;46.37;95752.88;6119802;19;1038;-84
2022/10/11 09:52:03;;;;;;;;;;;;;;;20.46;46.68;95743.84;6100751;19;1852;-85
2022/10/11 09:54:09;;;;;;;;;;;;;;;20.45;46.76;95744.88;6120065;19;1029;-84
2022/10/11 09:56:12;;;;;;;;;;;;;;;20.46;46.42;95754.53;6117756;19;1398;-85
2022/10/11 09:58:33;;;;;;;;;;;;;;;20.47;46.87;95751.69;6119206;19;1091;-86
2022/10/11 10:00:37;;;;;;;;;;;;;;;20.50;46.83;95742.47;6118510;19;1124;-82
2022/10/11 10:02:42;;;;;;;;;;;;;;;20.46;46.27;95741.19;6098878;19;1440;-82
2022/10/11 10:05:01;;;;;;;;;;;;;;;20.45;46.58;95747.53;6117325;19;1352;-81
2022/10/11 10:07:12;;;;;;;;;;;;;;;20.42;46.16;95742.59;6118102;19;1029;-80
2022/10/11 10:09:22;;;;;;;;;;;;;;;20.43;46.18;95728.22;6118691;19;1135;-83
2022/10/11 10:11:26;;;;;;;;;;;;;;;20.44;45.99;95724.56;6119362;19;1104;-83
2022/10/11 10:13:31;;;;;;;;;;;;;;;20.45;45.75;95721.66;6103942;19;1846;-83
2022/10/11 10:15:36;;;;;;;;;;;;;;;20.46;45.60;95717.16;6117283;19;1020;-82
2022/10/11 10:17:39;;;;;;;;;;;;;;;20.45;45.43;95731.53;6118499;19;1545;-86
2022/10/11 10:19:48;;;;;;;;;;;;;;;20.47;45.34;95724.16;6118717;19;1395;-83
2022/10/11 10:21:56;;;;;;;;;;;;;;;20.49;45.51;95724.81;6118904;19;1178;-85
2022/10/11 10:24:03;;;;;;;;;;;;;;;20.47;45.87;95722.31;6119035;19;990;-85
2022/10/11 10:26:17;;;;;;;;;;;;;;;20.47;45.90;95724.16;6101370;19;1113;-85
2022/10/11 10:28:22;;;;;;;;;;;;;;;20.47;45.93;95716.97;6118018;19;1061;-85
2022/10/11 10:30:26;;;;;;;;;;;;;;;20.48;45.93;95715.94;6116845;19;1487;-85
2022/10/11 10:32:32;;;;;;;;;;;;;;;20.50;45.97;95715.75;6118285;19;1845;-85
2022/10/11 10:34:36;;;;;;;;;;;;;;;20.49;46.31;95712.28;6118674;19;1163;-85
2022/10/11 10:36:41;;;;;;;;;;;;;;;20.52;46.00;95721.75;6098988;19;1124;-84
2022/10/11 10:38:51;;;;;;;;;;;;;;;20.52;46.35;95714.56;6117932;19;1396;-85
2022/10/11 10:40:55;;;;;;;;;;;;;;;20.53;46.59;95704.69;6118183;19;1068;-85
2022/10/11 10:42:59;;;;;;;;;;;;;;;20.54;46.55;95706.34;6118488;19;1109;-84
2022/10/11 10:45:03;;;;;;;;;;;;;;;20.55;46.47;95710.66;6116856;19;1458;-85
2022/10/11 10:47:12;;;;;;;;;;;;;;;20.57;46.37;95711.28;6108134;19;1259;-85
2022/10/11 10:49:19;;;;;;;;;;;;;;;20.56;46.16;95706.97;6109597;19;1034;-85
2022/10/11 10:51:28;;;;;;;;;;;;;;;20.57;46.27;95708.63;6116285;19;1422;-85
2022/10/11 10:53:34;;;;;;;;;;;;;;;20.56;46.65;95702.44;6115929;19;1845;-85
2022/10/11 10:55:43;;;;;;;;;;;;;;;20.57;46.38;95692.59;6118100;19;1025;-86
2022/10/11 10:57:54;;;;;;;;;;;;;;;20.58;46.64;95691.59;6117790;19;1065;-84
2022/10/11 11:00:13;;;;;;;;;;;;;;;20.60;46.61;95702.91;6098999;19;1017;-86
2022/10/11 11:02:21;;;;;;;;;;;;;;;20.62;46.81;95698.19;6117744;19;1107;-84